Terminal Aerodrome Forecast
Issued by NWS Jacksonville, FL

Home | Current Version | Previous Version | Text Only | Print | Product List | Glossary On
Versions: 1 2 3 4 5 6 7 8 9 10 11 12 13 14 15 16 17 18 19 20
379
FTUS42 KJAX 242341
TAFSSI
TAF
KSSI 242341Z 2500/2524 09005KT P6SM SKC
     FM250600 20003KT 3SM BR SCT005
     FM250900 23005KT 2SM BR BKN005
     FM251300 25009KT P6SM SCT030=

USA.gov is the U.S. government's official web portal to all federal, state and local government web resources and services.